createdAt,value
2018-04-16T04:16:59.094Z,3.37
2018-04-16T04:19:26.634Z,2.40
2018-04-16T04:21:54.180Z,2.13
2018-04-16T04:24:34.299Z,2.10
2018-04-16T04:27:15.466Z,2.40
2018-04-16T04:29:54.942Z,2.30
2018-04-16T04:32:26.619Z,4.57
2018-04-16T04:34:57.050Z,3.77
2018-04-16T04:37:24.673Z,3.40
2018-04-16T04:39:52.117Z,4.03
2018-04-16T04:42:20.593Z,4.40
2018-04-16T04:44:48.143Z,2.97
2018-04-16T04:47:15.599Z,3.33
2018-04-16T04:49:44.093Z,4.17
2018-04-16T04:52:12.076Z,3.10
2018-04-16T04:54:39.592Z,2.20
2018-04-16T04:57:07.077Z,3.57
2018-04-16T04:59:34.523Z,2.20
2018-04-16T05:02:02.183Z,2.77
2018-04-16T05:04:29.733Z,3.70
2018-04-16T05:06:57.198Z,2.93
2018-04-16T05:09:24.628Z,3.23
2018-04-16T05:11:52.960Z,2.80
2018-04-16T05:14:20.402Z,2.67
2018-04-16T05:16:47.864Z,4.73
2018-04-16T05:19:15.305Z,4.07
2018-04-16T05:21:42.763Z,2.50
2018-04-16T05:24:10.324Z,2.40
2018-04-16T05:26:37.767Z,2.63
2018-04-16T05:29:05.238Z,3.73
2018-04-16T05:31:32.696Z,2.20
2018-04-16T05:34:00.255Z,2.40
2018-04-16T05:36:27.697Z,2.30
2018-04-16T05:38:55.151Z,3.17
2018-04-16T05:41:22.734Z,2.87
2018-04-16T05:43:50.277Z,2.57
2018-04-16T05:46:17.773Z,2.30
2018-04-16T05:48:45.237Z,3.47
2018-04-16T05:51:12.688Z,3.60
2018-04-16T05:53:41.535Z,2.90
2018-04-16T05:56:09.811Z,2.60
2018-04-16T05:58:38.103Z,2.70
2018-04-16T06:01:07.839Z,4.07
2018-04-16T06:03:37.682Z,2.93
2018-04-16T06:06:05.190Z,3.63
2018-04-16T06:08:34.992Z,2.90
2018-04-16T06:11:02.524Z,2.30
2018-04-16T06:13:30.774Z,2.17
2018-04-16T06:15:58.220Z,2.07
2018-04-16T06:18:25.670Z,2.30
2018-04-16T06:20:57.121Z,2.03
2018-04-16T06:23:24.682Z,2.90
2018-04-16T06:25:52.137Z,2.40
2018-04-16T06:28:21.715Z,2.37
2018-04-16T06:30:49.243Z,2.33
2018-04-16T06:33:16.725Z,4.03
2018-04-16T06:35:44.258Z,5.00
2018-04-16T06:38:11.735Z,3.47
2018-04-16T06:40:40.025Z,3.10
2018-04-16T06:43:07.480Z,2.50
2018-04-16T06:45:35.768Z,2.80
2018-04-16T06:48:03.309Z,4.10
2018-04-16T06:50:31.524Z,3.80
2018-04-16T06:53:05.192Z,3.47
2018-04-16T06:55:32.588Z,3.27
2018-04-16T06:58:00.102Z,5.57
2018-04-16T07:00:27.639Z,5.90
2018-04-16T07:02:56.125Z,3.80
2018-04-16T07:05:25.138Z,3.97
2018-04-16T07:07:57.344Z,5.67
2018-04-16T07:10:25.597Z,5.40
2018-04-16T07:12:53.191Z,4.67
2018-04-16T07:15:20.777Z,6.60
2018-04-16T07:17:50.245Z,5.20
2018-04-16T07:20:17.711Z,4.70
2018-04-16T07:22:45.179Z,7.43
2018-04-16T07:25:12.624Z,4.47
2018-04-16T07:27:40.117Z,5.43
2018-04-16T07:30:09.513Z,5.00
2018-04-16T07:32:38.945Z,6.53
2018-04-16T07:35:07.227Z,6.00
2018-04-16T07:37:35.540Z,5.33
2018-04-16T07:40:03.009Z,4.10
2018-04-16T07:42:30.495Z,5.87
2018-04-16T07:44:58.734Z,5.83
2018-04-16T07:47:27.013Z,5.53
2018-04-16T07:49:54.504Z,4.53
2018-04-16T07:52:21.941Z,5.47
2018-04-16T07:54:49.385Z,5.77
2018-04-16T07:57:16.855Z,5.13
2018-04-16T07:59:44.310Z,4.17
2018-04-16T08:02:11.756Z,5.50
2018-04-16T08:04:41.372Z,5.87
2018-04-16T08:07:08.862Z,4.27
2018-04-16T08:09:36.343Z,5.20
2018-04-16T08:12:04.314Z,4.80
2018-04-16T08:14:33.613Z,5.33
2018-04-16T08:17:01.932Z,4.17
2018-04-16T08:19:29.383Z,5.53
2018-04-16T08:21:57.239Z,3.70
2018-04-16T08:24:25.096Z,5.07
2018-04-16T08:26:52.582Z,5.30
2018-04-16T08:29:20.018Z,5.07
2018-04-16T08:31:47.481Z,5.83
2018-04-16T08:34:15.273Z,3.50
2018-04-16T08:36:43.061Z,2.93
2018-04-16T08:39:11.694Z,4.33
2018-04-16T08:41:39.198Z,3.30
2018-04-16T08:44:06.671Z,3.30
2018-04-16T08:46:34.113Z,3.07
2018-04-16T08:49:01.554Z,3.30
2018-04-16T08:51:29.012Z,4.30
2018-04-16T08:53:56.472Z,4.43
2018-04-16T08:56:23.904Z,2.57
2018-04-16T08:58:51.360Z,3.07
2018-04-16T09:01:19.234Z,4.17
2018-04-16T09:03:47.684Z,2.13
2018-04-16T09:06:15.170Z,3.10
2018-04-16T09:08:42.672Z,2.93
2018-04-16T09:11:10.090Z,4.50
2018-04-16T09:13:37.556Z,4.03
2018-04-16T09:16:05.012Z,2.47
2018-04-16T09:18:32.505Z,2.80
2018-04-16T09:20:59.967Z,4.80
2018-04-16T09:23:28.368Z,3.93
2018-04-16T09:25:55.837Z,3.43
2018-04-16T09:28:25.301Z,4.70
2018-04-16T09:30:52.803Z,4.70
2018-04-16T09:33:20.271Z,3.23
2018-04-16T09:35:52.385Z,3.70
2018-04-16T09:38:25.428Z,3.93
2018-04-16T09:40:54.492Z,5.63
2018-04-16T09:43:24.918Z,6.27
2018-04-16T09:45:55.444Z,4.23
2018-04-16T09:48:26.641Z,6.23
2018-04-16T09:50:54.209Z,5.47
2018-04-16T09:53:21.664Z,3.03
2018-04-16T09:55:49.201Z,5.57
2018-04-16T09:58:17.796Z,3.90
2018-04-16T10:00:51.062Z,3.70
2018-04-16T10:03:18.647Z,4.63
2018-04-16T10:05:46.148Z,4.33
2018-04-16T10:08:13.598Z,4.33
2018-04-16T10:10:41.073Z,6.13
2018-04-16T10:13:08.531Z,4.60
2018-04-16T10:15:36.937Z,4.57
2018-04-16T10:18:06.524Z,2.50
2018-04-16T10:20:34.067Z,2.90
2018-04-16T10:23:01.579Z,2.87
2018-04-16T10:25:29.020Z,3.87
2018-04-16T10:27:56.760Z,3.23
2018-04-16T10:30:24.335Z,4.07
2018-04-16T10:32:52.652Z,2.80
2018-04-16T10:35:20.257Z,3.70
2018-04-16T10:37:47.788Z,4.17
2018-04-16T10:40:15.272Z,5.20
2018-04-16T10:42:42.809Z,5.13
2018-04-16T10:45:10.885Z,3.80
2018-04-16T10:47:39.190Z,4.10
2018-04-16T10:50:10.600Z,3.33
2018-04-16T10:52:38.074Z,2.77
2018-04-16T10:55:05.528Z,2.77
2018-04-16T10:57:32.990Z,2.37
2018-04-16T11:00:00.451Z,3.40
2018-04-16T11:02:27.907Z,3.43
2018-04-16T11:04:55.386Z,4.73
2018-04-16T11:07:24.971Z,4.73
2018-04-16T11:09:53.335Z,3.43
2018-04-16T11:12:20.784Z,4.77
2018-04-16T11:14:48.241Z,4.70
2018-04-16T11:17:15.734Z,4.57
2018-04-16T11:19:43.977Z,5.80
2018-04-16T11:22:12.209Z,3.23
2018-04-16T11:24:41.374Z,4.10
2018-04-16T11:27:08.856Z,3.43
2018-04-16T11:29:38.069Z,5.03
2018-04-16T11:32:05.504Z,6.30
2018-04-16T11:34:34.160Z,5.77
2018-04-16T11:37:03.360Z,6.57
2018-04-16T11:39:38.009Z,4.17
2018-04-16T11:42:05.503Z,3.07
2018-04-16T11:44:33.960Z,4.17
2018-04-16T11:47:01.514Z,4.10
2018-04-16T11:49:29.870Z,3.20
2018-04-16T11:51:57.556Z,3.67
2018-04-16T11:54:26.006Z,3.80
2018-04-16T11:56:53.461Z,5.10
2018-04-16T11:59:20.922Z,5.07
2018-04-16T12:01:49.128Z,4.57
2018-04-16T12:04:16.671Z,4.53
2018-04-16T12:06:44.893Z,4.90
2018-04-16T12:09:12.338Z,4.53
2018-04-16T12:11:39.933Z,3.87
2018-04-16T12:14:07.497Z,6.23
2018-04-16T12:16:37.116Z,5.57
2018-04-16T12:19:04.522Z,4.83
2018-04-16T12:21:32.907Z,5.80
2018-04-16T12:24:00.345Z,5.37
2018-04-16T12:26:28.657Z,5.97
2018-04-16T12:28:56.144Z,5.40
2018-04-16T12:31:23.667Z,3.93
2018-04-16T12:33:51.853Z,3.20
2018-04-16T12:36:20.412Z,6.17
2018-04-16T12:38:47.953Z,4.97
2018-04-16T12:41:16.247Z,2.77
2018-04-16T12:43:43.713Z,6.87
2018-04-16T12:46:11.349Z,5.87
2018-04-16T12:48:38.827Z,6.40
2018-04-16T12:51:06.301Z,4.20
2018-04-16T12:53:33.737Z,6.53
2018-04-16T12:56:02.330Z,5.43
2018-04-16T12:58:29.875Z,5.43
2018-04-16T13:00:58.161Z,4.37
2018-04-16T13:03:26.471Z,6.33
2018-04-16T13:05:53.994Z,4.17
2018-04-16T13:08:21.447Z,6.73
2018-04-16T13:10:50.956Z,5.77
2018-04-16T13:13:19.350Z,5.53
2018-04-16T13:15:50.924Z,5.67
2018-04-16T13:18:18.664Z,7.33
2018-04-16T13:20:46.125Z,6.50
2018-04-16T13:23:13.572Z,5.10
2018-04-16T13:28:40.332Z,6.10
2018-04-16T13:31:07.895Z,4.03
2018-04-16T13:33:39.436Z,6.13
2018-04-16T13:36:07.765Z,3.97
2018-04-16T13:38:35.243Z,5.27
2018-04-16T13:41:03.727Z,4.13
2018-04-16T13:43:32.138Z,5.73
2018-04-16T13:46:00.673Z,5.90
2018-04-16T13:48:28.107Z,5.23
2018-04-16T13:50:55.584Z,5.80
2018-04-16T13:53:23.023Z,4.83
2018-04-16T13:55:52.800Z,5.27
2018-04-16T13:58:20.357Z,5.27
2018-04-16T14:00:49.513Z,4.60
2018-04-16T14:03:16.959Z,4.90
2018-04-16T14:05:45.392Z,6.00
2018-04-16T14:08:13.711Z,4.73
2018-04-16T14:10:41.201Z,5.53
2018-04-16T14:13:08.685Z,6.47
2018-04-16T14:15:36.341Z,6.90
2018-04-16T14:18:03.793Z,3.80
2018-04-16T14:20:31.272Z,6.37
2018-04-16T14:22:58.824Z,5.33
2018-04-16T14:25:27.180Z,5.03
2018-04-16T14:27:54.616Z,5.53
2018-04-16T14:30:22.083Z,3.87
2018-04-16T14:35:23.326Z,3.57
2018-04-16T14:37:50.796Z,4.07
2018-04-16T14:40:18.244Z,3.80
2018-04-16T14:42:45.702Z,3.80
2018-04-16T14:45:14.237Z,4.67
2018-04-16T14:47:43.035Z,6.30
2018-04-16T14:50:13.251Z,4.10
2018-04-16T14:52:41.546Z,4.53
2018-04-16T14:55:10.024Z,4.40
2018-04-16T14:57:37.566Z,5.67
2018-04-16T15:00:05.980Z,3.00
2018-04-16T15:02:33.459Z,3.80
2018-04-16T15:05:00.949Z,3.33
2018-04-16T15:07:28.556Z,4.07
2018-04-16T15:09:56.058Z,4.07
2018-04-16T15:12:23.527Z,6.20
2018-04-16T15:14:51.881Z,3.53
2018-04-16T15:17:22.045Z,5.07
2018-04-16T15:19:50.305Z,3.00
2018-04-16T15:22:18.710Z,4.30
2018-04-16T15:24:46.353Z,3.77
2018-04-16T15:27:14.588Z,3.50
2018-04-16T15:29:42.137Z,3.07
2018-04-16T15:32:10.470Z,3.73
2018-04-16T15:34:38.892Z,4.00
2018-04-16T15:37:06.428Z,2.67
2018-04-16T15:39:33.999Z,2.83
2018-04-16T15:42:02.695Z,5.40
2018-04-16T15:44:30.495Z,4.70
2018-04-16T15:46:58.127Z,4.83
2018-04-16T15:49:25.647Z,4.60
2018-04-16T15:51:54.349Z,6.50
2018-04-16T15:54:21.898Z,7.40
2018-04-16T15:56:49.361Z,5.37
2018-04-16T15:59:16.857Z,5.07
2018-04-16T16:01:44.315Z,5.70
2018-04-16T16:04:11.761Z,4.50
2018-04-16T16:06:39.396Z,6.53
2018-04-16T16:09:10.715Z,3.23
2018-04-16T16:11:39.059Z,6.33
2018-04-16T16:14:11.568Z,4.87
2018-04-16T16:16:39.298Z,5.40
2018-04-16T16:19:09.554Z,4.03
2018-04-16T16:21:38.096Z,4.53
2018-04-16T16:24:05.902Z,6.83
2018-04-16T16:26:34.251Z,3.97
2018-04-16T16:29:05.147Z,7.03
2018-04-16T16:31:32.648Z,2.77
2018-04-16T16:34:00.133Z,6.20
2018-04-16T16:36:27.612Z,3.40
2018-04-16T16:38:55.846Z,4.40
2018-04-16T16:41:23.284Z,5.60
2018-04-16T16:43:50.849Z,6.77
2018-04-16T16:46:18.386Z,5.67
2018-04-16T16:48:45.905Z,6.13
2018-04-16T16:51:13.348Z,4.00
2018-04-16T16:53:40.874Z,4.77
2018-04-16T16:56:08.333Z,5.20
2018-04-16T16:58:35.810Z,4.27
2018-04-16T17:01:03.264Z,4.10
2018-04-16T17:03:32.217Z,5.70
2018-04-16T17:06:02.686Z,6.73
2018-04-16T17:08:31.689Z,5.53
2018-04-16T17:10:59.141Z,4.63
2018-04-16T17:13:26.593Z,6.07
2018-04-16T17:15:54.103Z,4.17
2018-04-16T17:18:21.559Z,5.30
2018-04-16T17:20:49.788Z,6.30
2018-04-16T17:23:17.255Z,6.57
2018-04-16T17:25:44.708Z,5.07
2018-04-16T17:28:12.167Z,5.93
2018-04-16T17:30:39.666Z,5.33
2018-04-16T17:33:08.966Z,6.00
2018-04-16T17:35:43.837Z,7.13
2018-04-16T17:38:16.316Z,3.43
2018-04-16T17:40:45.120Z,3.17
2018-04-16T17:43:15.403Z,5.63
2018-04-16T17:46:00.283Z,5.73
2018-04-16T17:51:35.409Z,4.47
2018-04-16T17:54:03.730Z,3.90
2018-04-16T17:56:31.940Z,4.50
2018-04-16T17:59:00.234Z,5.70
2018-04-16T18:01:28.524Z,3.87
2018-04-16T18:03:56.962Z,5.83
2018-04-16T18:06:24.493Z,4.53
2018-04-16T18:08:52.047Z,4.13
2018-04-16T18:11:20.338Z,2.83
2018-04-16T18:13:48.669Z,3.53
2018-04-16T18:16:17.867Z,4.67
2018-04-16T18:18:46.138Z,1.93
2018-04-16T18:21:14.507Z,2.63
2018-04-16T18:23:42.767Z,1.83
2018-04-16T18:29:07.123Z,1.67
2018-04-16T18:31:35.580Z,1.87
2018-04-16T18:34:04.133Z,1.23
2018-04-16T18:36:31.699Z,1.97
2018-04-16T18:39:00.304Z,2.83
2018-04-16T18:41:27.904Z,1.43
2018-04-16T18:43:55.544Z,2.10
2018-04-16T18:46:23.034Z,2.83
2018-04-16T18:48:50.497Z,2.10
2018-04-16T18:51:17.960Z,1.53
2018-04-16T18:53:45.437Z,2.47
2018-04-16T18:56:12.897Z,1.33
2018-04-16T18:58:41.362Z,2.10
2018-04-16T19:01:08.966Z,1.73
2018-04-16T19:03:36.581Z,1.40
2018-04-16T19:06:04.050Z,1.47
2018-04-16T19:12:01.135Z,0.80
2018-04-16T19:14:28.563Z,1.60
2018-04-16T19:16:56.892Z,1.33
2018-04-16T19:19:24.381Z,0.77
2018-04-16T19:21:53.811Z,0.60
2018-04-16T19:24:22.041Z,0.93
2018-04-16T19:26:55.060Z,1.23
2018-04-16T19:29:22.533Z,1.23
2018-04-16T19:31:50.084Z,0.83
2018-04-16T19:34:24.065Z,1.43
2018-04-16T19:36:51.555Z,1.10
2018-04-16T19:39:19.016Z,1.03
2018-04-16T19:41:53.825Z,1.67
2018-04-16T19:44:22.297Z,1.23
2018-04-16T19:46:49.843Z,1.27
2018-04-16T19:49:22.978Z,1.60
2018-04-16T19:51:50.425Z,1.47
2018-04-16T19:54:17.937Z,1.20
2018-04-16T19:56:50.965Z,1.40
2018-04-16T19:59:18.613Z,1.07
2018-04-16T20:01:51.672Z,1.17
2018-04-16T20:04:19.235Z,1.57
2018-04-16T20:06:46.707Z,1.37
2018-04-16T20:09:14.162Z,1.03
2018-04-16T20:11:41.624Z,1.53
2018-04-16T20:14:09.109Z,1.37
2018-04-16T20:16:37.337Z,1.77
2018-04-16T20:19:04.798Z,1.63
2018-04-16T20:21:33.763Z,1.43
2018-04-16T20:24:01.628Z,2.10
2018-04-16T20:26:29.864Z,0.90
2018-04-16T20:28:57.834Z,1.07
2018-04-16T20:31:25.732Z,1.83
2018-04-16T20:33:53.590Z,2.20
2018-04-16T20:36:21.443Z,1.30
2018-04-16T20:38:50.909Z,2.17
2018-04-16T20:41:18.789Z,1.73
2018-04-16T20:43:46.630Z,3.07
2018-04-16T20:46:14.570Z,1.77
2018-04-16T20:48:42.374Z,2.13
2018-04-16T20:51:09.916Z,2.97
2018-04-16T20:53:37.370Z,2.20
2018-04-16T20:56:05.637Z,1.77
2018-04-16T20:58:35.229Z,1.70
2018-04-16T21:01:05.178Z,3.57
2018-04-16T21:03:36.702Z,4.23
2018-04-16T21:06:09.049Z,3.70
2018-04-16T21:12:38.977Z,2.40
2018-04-16T21:15:11.538Z,3.00
2018-04-16T21:20:22.418Z,1.40
2018-04-16T21:22:54.169Z,2.07
2018-04-16T21:25:26.576Z,2.80
2018-04-16T21:27:55.165Z,4.30
2018-04-16T21:30:22.748Z,2.70
2018-04-16T21:32:50.200Z,4.20
2018-04-16T21:35:17.699Z,2.70
2018-04-16T21:37:45.113Z,1.90
2018-04-16T21:40:12.596Z,2.17
2018-04-16T21:42:40.050Z,1.30
2018-04-16T21:45:07.496Z,1.60
2018-04-16T21:47:34.964Z,1.50
2018-04-16T21:50:08.260Z,1.77
2018-04-16T21:52:35.807Z,1.53
2018-04-16T21:55:03.270Z,1.60
2018-04-16T21:57:31.505Z,1.30
2018-04-16T21:59:59.001Z,2.10
2018-04-16T22:02:26.476Z,1.70
2018-04-16T22:04:53.956Z,1.27
2018-04-16T22:07:22.204Z,1.20
2018-04-16T22:09:51.684Z,1.27
2018-04-16T22:12:20.229Z,1.50
2018-04-16T22:14:47.764Z,1.30
2018-04-16T22:17:16.064Z,1.40
2018-04-16T22:19:44.593Z,1.10
2018-04-16T22:22:12.097Z,1.57
2018-04-16T22:24:41.304Z,1.17
2018-04-16T22:27:08.787Z,1.10
2018-04-16T22:29:36.317Z,1.57
2018-04-16T22:32:03.809Z,1.97
2018-04-16T22:34:31.280Z,2.10
2018-04-16T22:36:58.747Z,3.77
2018-04-16T22:39:27.084Z,2.30
2018-04-16T22:41:54.786Z,1.93
2018-04-16T22:44:22.315Z,3.00
2018-04-16T22:46:49.756Z,2.47
2018-04-16T22:49:18.039Z,2.47
2018-04-16T22:51:45.586Z,5.43
2018-04-16T22:54:16.584Z,3.20
2018-04-16T22:56:44.020Z,3.20
2018-04-16T22:59:11.479Z,2.83
2018-04-16T23:01:39.014Z,3.10
2018-04-16T23:04:06.478Z,2.00
2018-04-16T23:06:33.942Z,3.53
2018-04-16T23:09:01.404Z,2.33
2018-04-16T23:11:29.489Z,1.93
2018-04-16T23:13:57.003Z,1.93
2018-04-16T23:16:24.497Z,1.53
2018-04-16T23:18:51.938Z,1.60
2018-04-16T23:21:25.598Z,4.03
2018-04-16T23:23:57.473Z,3.90
2018-04-16T23:26:25.736Z,2.67
2018-04-16T23:28:56.767Z,4.33
2018-04-16T23:31:24.225Z,4.80
2018-04-16T23:33:52.634Z,2.30
2018-04-16T23:36:21.131Z,1.90
2018-04-16T23:38:48.596Z,2.20
2018-04-16T23:41:17.050Z,1.80
2018-04-16T23:43:44.537Z,2.30
2018-04-16T23:46:12.076Z,2.63
2018-04-16T23:48:39.535Z,1.63
2018-04-16T23:51:07.101Z,2.20
2018-04-16T23:53:34.612Z,4.10
2018-04-16T23:56:04.120Z,2.27
2018-04-16T23:58:31.655Z,4.13
